sensor_id;sensor_type;location;lat;lon;timestamp;P1;durP1;ratioP1;P2;durP2;ratioP2
5833;SDS011;2943;48.012;10.968;2024-03-22T00:00:00;36.47;;;22.70;;
5833;SDS011;2943;48.012;10.968;2024-03-22T00:02:26;39.33;;;25.03;;
5833;SDS011;2943;48.012;10.968;2024-03-22T00:04:54;40.47;;;23.57;;
5833;SDS011;2943;48.012;10.968;2024-03-22T00:07:20;36.20;;;22.83;;
5833;SDS011;2943;48.012;10.968;2024-03-22T00:09:47;36.60;;;24.50;;
5833;SDS011;2943;48.012;10.968;2024-03-22T00:12:13;37.97;;;24.40;;
5833;SDS011;2943;48.012;10.968;2024-03-22T00:14:41;36.80;;;24.17;;
5833;SDS011;2943;48.012;10.968;2024-03-22T00:17:07;34.53;;;22.93;;
5833;SDS011;2943;48.012;10.968;2024-03-22T00:19:34;37.43;;;22.83;;
5833;SDS011;2943;48.012;10.968;2024-03-22T00:22:00;32.27;;;21.00;;
5833;SDS011;2943;48.012;10.968;2024-03-22T00:24:27;30.43;;;21.10;;
5833;SDS011;2943;48.012;10.968;2024-03-22T00:26:53;35.20;;;23.23;;
5833;SDS011;2943;48.012;10.968;2024-03-22T00:29:19;37.60;;;22.20;;
5833;SDS011;2943;48.012;10.968;2024-03-22T00:31:47;33.13;;;21.53;;
5833;SDS011;2943;48.012;10.968;2024-03-22T00:34:13;34.60;;;22.67;;
5833;SDS011;2943;48.012;10.968;2024-03-22T00:36:39;36.87;;;22.03;;
5833;SDS011;2943;48.012;10.968;2024-03-22T00:39:06;32.77;;;20.83;;
5833;SDS011;2943;48.012;10.968;2024-03-22T00:41:32;30.30;;;20.27;;
5833;SDS011;2943;48.012;10.968;2024-03-22T00:43:59;35.10;;;21.10;;
5833;SDS011;2943;48.012;10.968;2024-03-22T00:46:25;30.63;;;20.20;;
5833;SDS011;2943;48.012;10.968;2024-03-22T00:48:54;31.10;;;20.03;;
5833;SDS011;2943;48.012;10.968;2024-03-22T00:51:19;32.37;;;21.10;;
5833;SDS011;2943;48.012;10.968;2024-03-22T00:53:47;31.83;;;20.37;;
5833;SDS011;2943;48.012;10.968;2024-03-22T00:56:13;36.13;;;21.43;;
5833;SDS011;2943;48.012;10.968;2024-03-22T00:58:39;34.10;;;21.40;;
5833;SDS011;2943;48.012;10.968;2024-03-22T01:01:05;35.33;;;23.03;;
5833;SDS011;2943;48.012;10.968;2024-03-22T01:03:32;40.00;;;22.50;;
5833;SDS011;2943;48.012;10.968;2024-03-22T01:05:59;33.40;;;21.77;;
5833;SDS011;2943;48.012;10.968;2024-03-22T01:08:26;31.50;;;20.33;;
5833;SDS011;2943;48.012;10.968;2024-03-22T01:10:52;33.83;;;22.33;;
5833;SDS011;2943;48.012;10.968;2024-03-22T01:13:19;35.80;;;21.70;;
5833;SDS011;2943;48.012;10.968;2024-03-22T01:15:45;36.10;;;21.60;;
5833;SDS011;2943;48.012;10.968;2024-03-22T01:18:12;36.20;;;21.63;;
5833;SDS011;2943;48.012;10.968;2024-03-22T01:20:38;39.63;;;22.70;;
5833;SDS011;2943;48.012;10.968;2024-03-22T01:23:06;48.57;;;27.20;;
5833;SDS011;2943;48.012;10.968;2024-03-22T01:25:32;47.20;;;24.93;;
5833;SDS011;2943;48.012;10.968;2024-03-22T01:27:59;63.10;;;29.33;;
5833;SDS011;2943;48.012;10.968;2024-03-22T01:30:24;53.23;;;28.70;;
5833;SDS011;2943;48.012;10.968;2024-03-22T01:32:53;48.50;;;27.00;;
5833;SDS011;2943;48.012;10.968;2024-03-22T01:35:19;48.10;;;26.27;;
5833;SDS011;2943;48.012;10.968;2024-03-22T01:37:46;47.37;;;26.30;;
5833;SDS011;2943;48.012;10.968;2024-03-22T01:40:13;47.40;;;25.80;;
5833;SDS011;2943;48.012;10.968;2024-03-22T01:42:40;40.40;;;26.00;;
5833;SDS011;2943;48.012;10.968;2024-03-22T01:45:06;41.60;;;23.80;;
5833;SDS011;2943;48.012;10.968;2024-03-22T01:47:33;43.03;;;21.63;;
5833;SDS011;2943;48.012;10.968;2024-03-22T01:49:59;42.87;;;23.60;;
5833;SDS011;2943;48.012;10.968;2024-03-22T01:52:27;35.73;;;21.90;;
5833;SDS011;2943;48.012;10.968;2024-03-22T01:54:54;38.37;;;22.00;;
5833;SDS011;2943;48.012;10.968;2024-03-22T01:57:22;38.60;;;23.20;;
5833;SDS011;2943;48.012;10.968;2024-03-22T01:59:48;40.00;;;22.50;;
5833;SDS011;2943;48.012;10.968;2024-03-22T02:02:17;38.43;;;22.07;;
5833;SDS011;2943;48.012;10.968;2024-03-22T02:04:43;38.70;;;20.20;;
5833;SDS011;2943;48.012;10.968;2024-03-22T02:07:10;32.73;;;20.03;;
5833;SDS011;2943;48.012;10.968;2024-03-22T02:09:36;31.00;;;19.43;;
5833;SDS011;2943;48.012;10.968;2024-03-22T02:12:02;29.20;;;18.77;;
5833;SDS011;2943;48.012;10.968;2024-03-22T02:14:30;28.50;;;20.07;;
5833;SDS011;2943;48.012;10.968;2024-03-22T02:16:57;35.97;;;19.40;;
5833;SDS011;2943;48.012;10.968;2024-03-22T02:19:22;32.23;;;20.20;;
5833;SDS011;2943;48.012;10.968;2024-03-22T02:21:49;31.70;;;20.17;;
5833;SDS011;2943;48.012;10.968;2024-03-22T02:24:16;31.83;;;19.67;;
5833;SDS011;2943;48.012;10.968;2024-03-22T02:26:43;33.33;;;19.27;;
5833;SDS011;2943;48.012;10.968;2024-03-22T02:29:10;30.43;;;18.40;;
5833;SDS011;2943;48.012;10.968;2024-03-22T02:31:36;29.07;;;19.67;;
5833;SDS011;2943;48.012;10.968;2024-03-22T02:34:03;34.40;;;19.83;;
5833;SDS011;2943;48.012;10.968;2024-03-22T02:36:29;24.33;;;17.50;;
5833;SDS011;2943;48.012;10.968;2024-03-22T02:38:55;28.27;;;17.50;;
5833;SDS011;2943;48.012;10.968;2024-03-22T02:41:23;26.80;;;17.00;;
5833;SDS011;2943;48.012;10.968;2024-03-22T02:43:49;30.13;;;18.67;;
5833;SDS011;2943;48.012;10.968;2024-03-22T02:46:15;31.60;;;20.33;;
5833;SDS011;2943;48.012;10.968;2024-03-22T02:48:42;31.77;;;17.90;;
5833;SDS011;2943;48.012;10.968;2024-03-22T02:51:08;23.90;;;17.00;;
5833;SDS011;2943;48.012;10.968;2024-03-22T02:53:34;30.77;;;19.30;;
5833;SDS011;2943;48.012;10.968;2024-03-22T02:56:00;26.57;;;18.13;;
5833;SDS011;2943;48.012;10.968;2024-03-22T02:58:28;28.67;;;18.50;;
5833;SDS011;2943;48.012;10.968;2024-03-22T03:00:54;29.77;;;18.67;;
5833;SDS011;2943;48.012;10.968;2024-03-22T03:03:21;26.53;;;18.37;;
5833;SDS011;2943;48.012;10.968;2024-03-22T03:05:47;28.90;;;17.77;;
5833;SDS011;2943;48.012;10.968;2024-03-22T03:08:13;29.90;;;18.70;;
5833;SDS011;2943;48.012;10.968;2024-03-22T03:10:39;28.27;;;19.73;;
5833;SDS011;2943;48.012;10.968;2024-03-22T03:13:06;32.90;;;18.63;;
5833;SDS011;2943;48.012;10.968;2024-03-22T03:15:33;29.77;;;19.17;;
5833;SDS011;2943;48.012;10.968;2024-03-22T03:18:00;32.17;;;19.10;;
5833;SDS011;2943;48.012;10.968;2024-03-22T03:20:26;30.63;;;19.27;;
5833;SDS011;2943;48.012;10.968;2024-03-22T03:22:52;36.60;;;20.40;;
5833;SDS011;2943;48.012;10.968;2024-03-22T03:25:18;29.17;;;20.07;;
5833;SDS011;2943;48.012;10.968;2024-03-22T03:27:45;29.03;;;18.93;;
5833;SDS011;2943;48.012;10.968;2024-03-22T03:30:11;32.53;;;20.03;;
5833;SDS011;2943;48.012;10.968;2024-03-22T03:32:39;30.60;;;20.10;;
5833;SDS011;2943;48.012;10.968;2024-03-22T03:35:05;37.00;;;20.27;;
5833;SDS011;2943;48.012;10.968;2024-03-22T03:37:32;33.60;;;20.57;;
5833;SDS011;2943;48.012;10.968;2024-03-22T03:39:58;30.70;;;20.40;;
5833;SDS011;2943;48.012;10.968;2024-03-22T03:42:25;30.30;;;19.67;;
5833;SDS011;2943;48.012;10.968;2024-03-22T03:44:51;35.57;;;21.17;;
5833;SDS011;2943;48.012;10.968;2024-03-22T03:47:17;28.90;;;18.63;;
5833;SDS011;2943;48.012;10.968;2024-03-22T03:49:46;34.10;;;20.80;;
5833;SDS011;2943;48.012;10.968;2024-03-22T03:52:12;35.80;;;21.40;;
5833;SDS011;2943;48.012;10.968;2024-03-22T03:54:39;34.90;;;21.93;;
5833;SDS011;2943;48.012;10.968;2024-03-22T03:57:05;34.10;;;21.17;;
5833;SDS011;2943;48.012;10.968;2024-03-22T03:59:31;36.80;;;21.43;;
5833;SDS011;2943;48.012;10.968;2024-03-22T04:01:58;34.67;;;20.80;;
5833;SDS011;2943;48.012;10.968;2024-03-22T04:04:24;35.37;;;21.40;;
5833;SDS011;2943;48.012;10.968;2024-03-22T04:06:52;38.27;;;21.17;;
5833;SDS011;2943;48.012;10.968;2024-03-22T04:09:18;34.60;;;22.00;;
5833;SDS011;2943;48.012;10.968;2024-03-22T04:11:45;38.63;;;22.13;;
5833;SDS011;2943;48.012;10.968;2024-03-22T04:14:10;32.47;;;20.30;;
5833;SDS011;2943;48.012;10.968;2024-03-22T04:16:37;38.47;;;21.67;;
5833;SDS011;2943;48.012;10.968;2024-03-22T04:19:03;36.27;;;21.17;;
5833;SDS011;2943;48.012;10.968;2024-03-22T04:21:30;34.87;;;20.33;;
5833;SDS011;2943;48.012;10.968;2024-03-22T04:23:57;29.77;;;19.53;;
5833;SDS011;2943;48.012;10.968;2024-03-22T04:26:24;28.87;;;19.20;;
5833;SDS011;2943;48.012;10.968;2024-03-22T04:28:49;35.27;;;21.40;;
5833;SDS011;2943;48.012;10.968;2024-03-22T04:31:16;31.13;;;20.10;;
5833;SDS011;2943;48.012;10.968;2024-03-22T04:33:42;35.63;;;21.93;;
5833;SDS011;2943;48.012;10.968;2024-03-22T04:36:09;33.73;;;19.73;;
5833;SDS011;2943;48.012;10.968;2024-03-22T04:38:35;32.07;;;20.37;;
5833;SDS011;2943;48.012;10.968;2024-03-22T04:41:03;36.43;;;22.33;;
5833;SDS011;2943;48.012;10.968;2024-03-22T04:43:29;32.27;;;20.47;;
5833;SDS011;2943;48.012;10.968;2024-03-22T04:45:56;30.00;;;19.70;;
5833;SDS011;2943;48.012;10.968;2024-03-22T04:48:22;31.23;;;21.60;;
5833;SDS011;2943;48.012;10.968;2024-03-22T04:50:50;33.57;;;21.17;;
5833;SDS011;2943;48.012;10.968;2024-03-22T04:53:17;36.40;;;21.13;;
5833;SDS011;2943;48.012;10.968;2024-03-22T04:55:44;34.93;;;22.17;;
5833;SDS011;2943;48.012;10.968;2024-03-22T04:58:14;37.07;;;21.33;;
5833;SDS011;2943;48.012;10.968;2024-03-22T05:00:41;39.07;;;20.87;;
5833;SDS011;2943;48.012;10.968;2024-03-22T05:03:08;32.60;;;20.80;;
5833;SDS011;2943;48.012;10.968;2024-03-22T05:05:35;30.77;;;20.57;;
5833;SDS011;2943;48.012;10.968;2024-03-22T05:08:02;29.70;;;19.40;;
5833;SDS011;2943;48.012;10.968;2024-03-22T05:10:28;34.10;;;22.07;;
5833;SDS011;2943;48.012;10.968;2024-03-22T05:12:55;31.67;;;20.20;;
5833;SDS011;2943;48.012;10.968;2024-03-22T05:15:23;34.83;;;19.93;;
5833;SDS011;2943;48.012;10.968;2024-03-22T05:17:50;37.13;;;22.13;;
5833;SDS011;2943;48.012;10.968;2024-03-22T05:20:16;32.80;;;20.23;;
5833;SDS011;2943;48.012;10.968;2024-03-22T05:22:43;34.10;;;21.73;;
5833;SDS011;2943;48.012;10.968;2024-03-22T05:25:10;33.27;;;20.20;;
5833;SDS011;2943;48.012;10.968;2024-03-22T05:27:36;33.90;;;20.27;;
5833;SDS011;2943;48.012;10.968;2024-03-22T05:30:03;34.03;;;20.00;;
5833;SDS011;2943;48.012;10.968;2024-03-22T05:32:30;32.63;;;19.57;;
5833;SDS011;2943;48.012;10.968;2024-03-22T05:34:57;27.67;;;19.90;;
5833;SDS011;2943;48.012;10.968;2024-03-22T05:37:23;31.20;;;20.73;;
5833;SDS011;2943;48.012;10.968;2024-03-22T05:39:50;33.23;;;20.83;;
5833;SDS011;2943;48.012;10.968;2024-03-22T05:42:16;34.27;;;20.47;;
5833;SDS011;2943;48.012;10.968;2024-03-22T05:44:42;32.40;;;20.40;;
5833;SDS011;2943;48.012;10.968;2024-03-22T05:47:09;30.20;;;20.73;;
5833;SDS011;2943;48.012;10.968;2024-03-22T05:49:37;33.00;;;19.93;;
5833;SDS011;2943;48.012;10.968;2024-03-22T05:52:04;31.83;;;20.43;;
5833;SDS011;2943;48.012;10.968;2024-03-22T05:54:30;35.57;;;21.80;;
5833;SDS011;2943;48.012;10.968;2024-03-22T05:56:56;32.20;;;20.67;;
5833;SDS011;2943;48.012;10.968;2024-03-22T05:59:22;30.60;;;19.17;;
5833;SDS011;2943;48.012;10.968;2024-03-22T06:01:49;25.10;;;17.17;;
5833;SDS011;2943;48.012;10.968;2024-03-22T06:04:15;26.00;;;17.40;;
5833;SDS011;2943;48.012;10.968;2024-03-22T06:06:43;35.00;;;20.40;;
5833;SDS011;2943;48.012;10.968;2024-03-22T06:09:09;28.07;;;18.83;;
5833;SDS011;2943;48.012;10.968;2024-03-22T06:11:38;27.60;;;18.37;;
5833;SDS011;2943;48.012;10.968;2024-03-22T06:14:04;27.13;;;18.10;;
5833;SDS011;2943;48.012;10.968;2024-03-22T06:16:31;29.23;;;19.47;;
5833;SDS011;2943;48.012;10.968;2024-03-22T06:18:57;25.67;;;18.30;;
5833;SDS011;2943;48.012;10.968;2024-03-22T06:21:24;29.53;;;18.77;;
5833;SDS011;2943;48.012;10.968;2024-03-22T06:23:52;30.73;;;20.00;;
5833;SDS011;2943;48.012;10.968;2024-03-22T06:26:19;32.47;;;20.53;;
5833;SDS011;2943;48.012;10.968;2024-03-22T06:28:46;34.53;;;19.47;;
5833;SDS011;2943;48.012;10.968;2024-03-22T06:31:14;34.90;;;18.57;;
5833;SDS011;2943;48.012;10.968;2024-03-22T06:33:41;35.13;;;21.27;;
5833;SDS011;2943;48.012;10.968;2024-03-22T06:36:08;33.40;;;22.73;;
5833;SDS011;2943;48.012;10.968;2024-03-22T06:38:34;28.90;;;20.27;;
5833;SDS011;2943;48.012;10.968;2024-03-22T06:41:05;31.33;;;21.00;;
5833;SDS011;2943;48.012;10.968;2024-03-22T06:43:32;24.40;;;18.30;;
5833;SDS011;2943;48.012;10.968;2024-03-22T06:46:00;27.23;;;18.17;;
5833;SDS011;2943;48.012;10.968;2024-03-22T06:48:26;31.50;;;18.63;;
5833;SDS011;2943;48.012;10.968;2024-03-22T06:50:53;31.70;;;19.60;;
5833;SDS011;2943;48.012;10.968;2024-03-22T06:53:19;29.57;;;20.03;;
5833;SDS011;2943;48.012;10.968;2024-03-22T06:55:46;33.30;;;19.40;;
5833;SDS011;2943;48.012;10.968;2024-03-22T06:58:15;29.87;;;20.20;;
5833;SDS011;2943;48.012;10.968;2024-03-22T07:00:43;31.00;;;20.70;;
5833;SDS011;2943;48.012;10.968;2024-03-22T07:03:08;32.93;;;21.57;;
5833;SDS011;2943;48.012;10.968;2024-03-22T07:05:35;30.63;;;18.47;;
5833;SDS011;2943;48.012;10.968;2024-03-22T07:08:01;20.70;;;15.10;;
5833;SDS011;2943;48.012;10.968;2024-03-22T07:10:29;17.33;;;12.60;;
5833;SDS011;2943;48.012;10.968;2024-03-22T07:12:56;20.70;;;12.97;;
5833;SDS011;2943;48.012;10.968;2024-03-22T07:15:24;14.37;;;11.70;;
5833;SDS011;2943;48.012;10.968;2024-03-22T07:17:51;17.77;;;11.67;;
5833;SDS011;2943;48.012;10.968;2024-03-22T07:20:21;17.60;;;11.30;;
5833;SDS011;2943;48.012;10.968;2024-03-22T07:22:46;17.73;;;12.00;;
5833;SDS011;2943;48.012;10.968;2024-03-22T07:25:15;15.07;;;11.20;;
5833;SDS011;2943;48.012;10.968;2024-03-22T07:27:41;16.45;;;10.32;;
5833;SDS011;2943;48.012;10.968;2024-03-22T07:30:11;12.27;;;9.70;;
5833;SDS011;2943;48.012;10.968;2024-03-22T07:32:40;11.03;;;9.53;;
5833;SDS011;2943;48.012;10.968;2024-03-22T07:35:07;12.00;;;9.10;;
5833;SDS011;2943;48.012;10.968;2024-03-22T07:37:33;13.73;;;9.20;;
5833;SDS011;2943;48.012;10.968;2024-03-22T07:40:03;11.63;;;8.93;;
5833;SDS011;2943;48.012;10.968;2024-03-22T07:42:30;14.30;;;9.17;;
5833;SDS011;2943;48.012;10.968;2024-03-22T07:45:01;10.57;;;8.90;;
5833;SDS011;2943;48.012;10.968;2024-03-22T07:47:27;14.37;;;7.60;;
5833;SDS011;2943;48.012;10.968;2024-03-22T07:49:57;9.37;;;8.40;;
5833;SDS011;2943;48.012;10.968;2024-03-22T07:52:23;10.00;;;7.00;;
5833;SDS011;2943;48.012;10.968;2024-03-22T07:54:51;8.43;;;7.30;;
5833;SDS011;2943;48.012;10.968;2024-03-22T07:57:20;8.93;;;7.50;;
5833;SDS011;2943;48.012;10.968;2024-03-22T07:59:49;10.30;;;7.17;;
5833;SDS011;2943;48.012;10.968;2024-03-22T08:02:16;8.87;;;7.53;;
5833;SDS011;2943;48.012;10.968;2024-03-22T08:04:43;7.77;;;6.97;;
5833;SDS011;2943;48.012;10.968;2024-03-22T08:07:10;8.90;;;7.10;;
5833;SDS011;2943;48.012;10.968;2024-03-22T08:09:37;10.30;;;7.60;;
5833;SDS011;2943;48.012;10.968;2024-03-22T08:12:03;9.17;;;6.73;;
5833;SDS011;2943;48.012;10.968;2024-03-22T08:14:31;13.67;;;8.10;;
5833;SDS011;2943;48.012;10.968;2024-03-22T08:16:59;10.53;;;7.27;;
5833;SDS011;2943;48.012;10.968;2024-03-22T08:19:26;6.70;;;6.10;;
5833;SDS011;2943;48.012;10.968;2024-03-22T08:21:53;11.40;;;6.80;;
5833;SDS011;2943;48.012;10.968;2024-03-22T08:24:23;10.83;;;6.73;;
5833;SDS011;2943;48.012;10.968;2024-03-22T08:26:50;9.40;;;6.30;;
5833;SDS011;2943;48.012;10.968;2024-03-22T08:29:17;9.20;;;6.50;;
5833;SDS011;2943;48.012;10.968;2024-03-22T08:31:43;10.93;;;5.83;;
5833;SDS011;2943;48.012;10.968;2024-03-22T08:34:10;8.40;;;5.87;;
5833;SDS011;2943;48.012;10.968;2024-03-22T08:36:37;7.30;;;5.83;;
5833;SDS011;2943;48.012;10.968;2024-03-22T08:39:04;6.20;;;5.60;;
5833;SDS011;2943;48.012;10.968;2024-03-22T08:41:33;8.60;;;5.10;;
5833;SDS011;2943;48.012;10.968;2024-03-22T08:44:02;6.80;;;5.00;;
5833;SDS011;2943;48.012;10.968;2024-03-22T08:46:28;7.23;;;5.37;;
5833;SDS011;2943;48.012;10.968;2024-03-22T08:48:58;7.93;;;5.43;;
5833;SDS011;2943;48.012;10.968;2024-03-22T08:51:24;6.60;;;4.43;;
5833;SDS011;2943;48.012;10.968;2024-03-22T08:53:51;5.07;;;4.60;;
5833;SDS011;2943;48.012;10.968;2024-03-22T08:56:17;10.30;;;4.80;;
5833;SDS011;2943;48.012;10.968;2024-03-22T08:58:46;5.17;;;4.30;;
5833;SDS011;2943;48.012;10.968;2024-03-22T09:01:14;5.87;;;5.00;;
5833;SDS011;2943;48.012;10.968;2024-03-22T09:03:41;9.47;;;5.63;;
5833;SDS011;2943;48.012;10.968;2024-03-22T09:06:11;5.20;;;4.33;;
5833;SDS011;2943;48.012;10.968;2024-03-22T09:08:38;6.53;;;4.50;;
5833;SDS011;2943;48.012;10.968;2024-03-22T09:11:05;6.13;;;4.70;;
5833;SDS011;2943;48.012;10.968;2024-03-22T09:13:34;8.37;;;4.90;;
5833;SDS011;2943;48.012;10.968;2024-03-22T09:16:03;5.17;;;4.60;;
5833;SDS011;2943;48.012;10.968;2024-03-22T09:18:30;4.57;;;4.03;;
5833;SDS011;2943;48.012;10.968;2024-03-22T09:20:57;4.97;;;4.47;;
5833;SDS011;2943;48.012;10.968;2024-03-22T09:23:24;4.73;;;4.33;;
5833;SDS011;2943;48.012;10.968;2024-03-22T09:25:50;5.40;;;4.90;;
5833;SDS011;2943;48.012;10.968;2024-03-22T09:28:19;5.73;;;4.07;;
5833;SDS011;2943;48.012;10.968;2024-03-22T09:30:46;9.30;;;4.47;;
5833;SDS011;2943;48.012;10.968;2024-03-22T09:33:15;4.93;;;4.43;;
5833;SDS011;2943;48.012;10.968;2024-03-22T09:35:43;6.83;;;5.10;;
5833;SDS011;2943;48.012;10.968;2024-03-22T09:38:10;4.63;;;4.13;;
5833;SDS011;2943;48.012;10.968;2024-03-22T09:40:37;6.60;;;4.40;;
5833;SDS011;2943;48.012;10.968;2024-03-22T09:43:05;4.73;;;4.33;;
5833;SDS011;2943;48.012;10.968;2024-03-22T09:45:33;6.50;;;5.30;;
5833;SDS011;2943;48.012;10.968;2024-03-22T09:48:00;7.00;;;4.47;;
5833;SDS011;2943;48.012;10.968;2024-03-22T09:50:31;7.60;;;4.70;;
5833;SDS011;2943;48.012;10.968;2024-03-22T09:53:02;5.23;;;4.67;;
5833;SDS011;2943;48.012;10.968;2024-03-22T09:55:29;6.27;;;4.63;;
5833;SDS011;2943;48.012;10.968;2024-03-22T09:57:59;7.53;;;4.60;;
5833;SDS011;2943;48.012;10.968;2024-03-22T10:00:25;6.20;;;4.93;;
5833;SDS011;2943;48.012;10.968;2024-03-22T10:02:53;6.40;;;5.00;;
5833;SDS011;2943;48.012;10.968;2024-03-22T10:05:20;10.97;;;5.20;;
5833;SDS011;2943;48.012;10.968;2024-03-22T10:07:48;5.50;;;4.73;;
5833;SDS011;2943;48.012;10.968;2024-03-22T10:10:16;5.27;;;4.77;;
5833;SDS011;2943;48.012;10.968;2024-03-22T10:12:47;6.10;;;4.90;;
5833;SDS011;2943;48.012;10.968;2024-03-22T10:15:14;7.83;;;5.20;;
5833;SDS011;2943;48.012;10.968;2024-03-22T10:17:46;6.45;;;4.68;;
5833;SDS011;2943;48.012;10.968;2024-03-22T10:20:12;6.17;;;4.17;;
5833;SDS011;2943;48.012;10.968;2024-03-22T10:22:43;5.13;;;4.33;;
5833;SDS011;2943;48.012;10.968;2024-03-22T10:25:23;4.82;;;3.80;;
5833;SDS011;2943;48.012;10.968;2024-03-22T10:27:53;4.43;;;4.03;;
5833;SDS011;2943;48.012;10.968;2024-03-22T10:30:19;6.70;;;4.37;;
5833;SDS011;2943;48.012;10.968;2024-03-22T10:32:48;8.13;;;4.37;;
5833;SDS011;2943;48.012;10.968;2024-03-22T10:35:20;5.97;;;3.57;;
5833;SDS011;2943;48.012;10.968;2024-03-22T10:37:49;4.53;;;4.03;;
5833;SDS011;2943;48.012;10.968;2024-03-22T10:40:16;5.40;;;3.70;;
5833;SDS011;2943;48.012;10.968;2024-03-22T10:42:45;6.80;;;2.93;;
5833;SDS011;2943;48.012;10.968;2024-03-22T10:45:13;4.70;;;3.47;;
5833;SDS011;2943;48.012;10.968;2024-03-22T10:47:41;4.37;;;3.97;;
5833;SDS011;2943;48.012;10.968;2024-03-22T10:50:15;5.57;;;4.10;;
5833;SDS011;2943;48.012;10.968;2024-03-22T10:52:45;6.00;;;3.13;;
5833;SDS011;2943;48.012;10.968;2024-03-22T10:55:18;4.03;;;3.40;;
5833;SDS011;2943;48.012;10.968;2024-03-22T10:57:49;5.60;;;3.83;;
5833;SDS011;2943;48.012;10.968;2024-03-22T11:00:27;3.97;;;3.63;;
5833;SDS011;2943;48.012;10.968;2024-03-22T11:02:56;4.10;;;3.53;;
5833;SDS011;2943;48.012;10.968;2024-03-22T11:05:25;8.93;;;3.80;;
5833;SDS011;2943;48.012;10.968;2024-03-22T11:08:00;3.97;;;2.73;;
5833;SDS011;2943;48.012;10.968;2024-03-22T11:10:30;4.00;;;3.10;;
5833;SDS011;2943;48.012;10.968;2024-03-22T11:13:02;5.40;;;3.33;;
5833;SDS011;2943;48.012;10.968;2024-03-22T11:15:32;4.30;;;3.20;;
5833;SDS011;2943;48.012;10.968;2024-03-22T11:18:00;4.50;;;3.30;;
5833;SDS011;2943;48.012;10.968;2024-03-22T11:20:29;4.10;;;3.77;;
5833;SDS011;2943;48.012;10.968;2024-03-22T11:23:01;5.43;;;3.70;;
5833;SDS011;2943;48.012;10.968;2024-03-22T11:25:31;8.27;;;4.00;;
5833;SDS011;2943;48.012;10.968;2024-03-22T11:27:58;5.23;;;3.67;;
5833;SDS011;2943;48.012;10.968;2024-03-22T11:30:28;3.50;;;3.20;;
5833;SDS011;2943;48.012;10.968;2024-03-22T11:32:57;5.03;;;3.87;;
5833;SDS011;2943;48.012;10.968;2024-03-22T11:35:28;7.80;;;5.13;;
5833;SDS011;2943;48.012;10.968;2024-03-22T11:37:55;4.83;;;4.33;;
5833;SDS011;2943;48.012;10.968;2024-03-22T11:40:24;4.50;;;4.10;;
5833;SDS011;2943;48.012;10.968;2024-03-22T11:42:54;7.60;;;4.63;;
5833;SDS011;2943;48.012;10.968;2024-03-22T11:45:21;5.00;;;4.13;;
5833;SDS011;2943;48.012;10.968;2024-03-22T11:47:49;4.77;;;4.23;;
5833;SDS011;2943;48.012;10.968;2024-03-22T11:50:16;8.20;;;4.30;;
5833;SDS011;2943;48.012;10.968;2024-03-22T11:52:46;5.43;;;4.33;;
5833;SDS011;2943;48.012;10.968;2024-03-22T11:55:13;6.00;;;5.00;;
5833;SDS011;2943;48.012;10.968;2024-03-22T11:57:47;5.67;;;4.50;;
5833;SDS011;2943;48.012;10.968;2024-03-22T12:00:16;7.27;;;4.20;;
5833;SDS011;2943;48.012;10.968;2024-03-22T12:02:44;6.97;;;3.87;;
5833;SDS011;2943;48.012;10.968;2024-03-22T12:05:11;7.50;;;4.17;;
5833;SDS011;2943;48.012;10.968;2024-03-22T12:07:39;4.53;;;3.50;;
5833;SDS011;2943;48.012;10.968;2024-03-22T12:10:06;5.63;;;3.57;;
5833;SDS011;2943;48.012;10.968;2024-03-22T12:12:38;3.87;;;3.47;;
5833;SDS011;2943;48.012;10.968;2024-03-22T12:15:06;2.93;;;2.73;;
5833;SDS011;2943;48.012;10.968;2024-03-22T12:17:36;3.00;;;2.80;;
5833;SDS011;2943;48.012;10.968;2024-03-22T12:20:05;6.30;;;3.13;;
5833;SDS011;2943;48.012;10.968;2024-03-22T12:22:35;3.33;;;3.03;;
5833;SDS011;2943;48.012;10.968;2024-03-22T12:25:01;3.10;;;2.73;;
5833;SDS011;2943;48.012;10.968;2024-03-22T12:27:29;3.93;;;3.10;;
5833;SDS011;2943;48.012;10.968;2024-03-22T12:29:56;5.03;;;3.30;;
5833;SDS011;2943;48.012;10.968;2024-03-22T12:32:28;3.10;;;2.80;;
5833;SDS011;2943;48.012;10.968;2024-03-22T12:34:56;20.13;;;12.00;;
5833;SDS011;2943;48.012;10.968;2024-03-22T12:37:23;3.77;;;3.17;;
5833;SDS011;2943;48.012;10.968;2024-03-22T12:39:51;5.37;;;2.93;;
5833;SDS011;2943;48.012;10.968;2024-03-22T12:42:18;3.33;;;3.03;;
5833;SDS011;2943;48.012;10.968;2024-03-22T12:44:44;3.27;;;2.97;;
5833;SDS011;2943;48.012;10.968;2024-03-22T12:47:15;5.40;;;3.13;;
5833;SDS011;2943;48.012;10.968;2024-03-22T12:49:48;4.97;;;3.10;;
5833;SDS011;2943;48.012;10.968;2024-03-22T12:52:15;3.20;;;2.83;;
5833;SDS011;2943;48.012;10.968;2024-03-22T12:54:41;5.63;;;2.77;;
5833;SDS011;2943;48.012;10.968;2024-03-22T12:57:11;3.47;;;3.10;;
5833;SDS011;2943;48.012;10.968;2024-03-22T12:59:38;3.17;;;2.73;;
5833;SDS011;2943;48.012;10.968;2024-03-22T13:02:06;4.53;;;3.67;;
5833;SDS011;2943;48.012;10.968;2024-03-22T13:04:34;4.03;;;3.20;;
5833;SDS011;2943;48.012;10.968;2024-03-22T13:07:05;5.27;;;2.70;;
5833;SDS011;2943;48.012;10.968;2024-03-22T13:09:31;4.17;;;2.97;;
5833;SDS011;2943;48.012;10.968;2024-03-22T13:11:58;5.83;;;2.97;;
5833;SDS011;2943;48.012;10.968;2024-03-22T13:14:24;6.63;;;3.23;;
5833;SDS011;2943;48.012;10.968;2024-03-22T13:16:56;4.30;;;2.93;;
5833;SDS011;2943;48.012;10.968;2024-03-22T13:19:24;4.87;;;3.20;;
5833;SDS011;2943;48.012;10.968;2024-03-22T13:21:53;3.30;;;2.87;;
5833;SDS011;2943;48.012;10.968;2024-03-22T13:24:23;3.77;;;2.63;;
5833;SDS011;2943;48.012;10.968;2024-03-22T13:26:51;5.17;;;2.50;;
5833;SDS011;2943;48.012;10.968;2024-03-22T13:29:16;4.03;;;2.70;;
5833;SDS011;2943;48.012;10.968;2024-03-22T13:31:47;6.33;;;2.67;;
5833;SDS011;2943;48.012;10.968;2024-03-22T13:34:15;4.07;;;2.70;;
5833;SDS011;2943;48.012;10.968;2024-03-22T13:36:42;4.73;;;2.53;;
5833;SDS011;2943;48.012;10.968;2024-03-22T13:39:08;2.83;;;2.43;;
5833;SDS011;2943;48.012;10.968;2024-03-22T13:41:42;11.90;;;2.70;;
5833;SDS011;2943;48.012;10.968;2024-03-22T13:44:10;4.50;;;2.40;;
5833;SDS011;2943;48.012;10.968;2024-03-22T13:46:37;2.60;;;2.30;;
5833;SDS011;2943;48.012;10.968;2024-03-22T13:49:12;6.47;;;2.53;;
5833;SDS011;2943;48.012;10.968;2024-03-22T13:51:46;2.53;;;2.33;;
5833;SDS011;2943;48.012;10.968;2024-03-22T13:54:13;2.03;;;1.70;;
5833;SDS011;2943;48.012;10.968;2024-03-22T13:56:42;3.03;;;2.20;;
5833;SDS011;2943;48.012;10.968;2024-03-22T13:59:08;4.27;;;2.10;;
5833;SDS011;2943;48.012;10.968;2024-03-22T14:01:37;2.00;;;1.90;;
5833;SDS011;2943;48.012;10.968;2024-03-22T14:04:03;6.67;;;2.30;;
5833;SDS011;2943;48.012;10.968;2024-03-22T14:06:32;3.00;;;2.50;;
5833;SDS011;2943;48.012;10.968;2024-03-22T14:08:58;3.50;;;1.93;;
5833;SDS011;2943;48.012;10.968;2024-03-22T14:11:26;5.57;;;2.10;;
5833;SDS011;2943;48.012;10.968;2024-03-22T14:13:56;2.87;;;2.23;;
5833;SDS011;2943;48.012;10.968;2024-03-22T14:16:23;3.00;;;2.00;;
5833;SDS011;2943;48.012;10.968;2024-03-22T14:18:50;3.70;;;2.20;;
5833;SDS011;2943;48.012;10.968;2024-03-22T14:21:20;2.87;;;2.17;;
5833;SDS011;2943;48.012;10.968;2024-03-22T14:23:47;4.03;;;2.13;;
5833;SDS011;2943;48.012;10.968;2024-03-22T14:26:17;6.73;;;1.90;;
5833;SDS011;2943;48.012;10.968;2024-03-22T14:28:45;2.43;;;2.20;;
5833;SDS011;2943;48.012;10.968;2024-03-22T14:31:14;3.73;;;2.27;;
5833;SDS011;2943;48.012;10.968;2024-03-22T14:33:40;1.80;;;1.70;;
5833;SDS011;2943;48.012;10.968;2024-03-22T14:36:08;2.20;;;2.00;;
5833;SDS011;2943;48.012;10.968;2024-03-22T14:38:38;4.43;;;2.27;;
5833;SDS011;2943;48.012;10.968;2024-03-22T14:41:07;7.17;;;2.27;;
5833;SDS011;2943;48.012;10.968;2024-03-22T14:43:34;2.57;;;2.37;;
5833;SDS011;2943;48.012;10.968;2024-03-22T14:46:01;4.20;;;2.40;;